Time;durP1;ratioP1;P1;durP2;ratioP2;P2;SDS_P1;SDS_P2;PMS_P1;PMS_P2;Temp;Humidity;BMP_temperature;BMP_pressure;BME280_temperature;BME280_humidity;BME280_pressure;Samples;Min_cycle;Max_cycle;Signal;HPM_P1;HPM_P2
2022/11/19 00:01:09;;;;;;;13.95;6.90;;;;;;;;;;5042725;28;20257;-66
2022/11/19 00:03:36;;;;;;;14.93;6.78;;;;;;;;;;5041987;28;20759;-66
2022/11/19 00:06:18;;;;;;;15.10;7.10;;;;;;;;;;5042910;28;20074;-66
2022/11/19 00:08:44;;;;;;;28.48;8.18;;;;;;;;;;5031105;28;20029;-67
2022/11/19 00:14:02;;;;;;;17.35;7.13;;;;;;;;;;5023103;28;20037;-66
2022/11/19 00:16:28;;;;;;;15.82;7.15;;;;;;;;;;5022799;28;20033;-66
2022/11/19 00:18:53;;;;;;;12.70;6.97;;;;;;;;;;5023138;28;20658;-66
2022/11/19 00:21:19;;;;;;;13.10;6.32;;;;;;;;;;5022532;28;20414;-66
2022/11/19 00:23:44;;;;;;;16.67;7.07;;;;;;;;;;5023699;28;20032;-66
2022/11/19 00:26:12;;;;;;;13.40;6.90;;;;;;;;;;5039894;28;20255;-66
2022/11/19 00:28:38;;;;;;;17.02;6.78;;;;;;;;;;5042385;28;20036;-66
2022/11/19 00:31:09;;;;;;;13.82;6.47;;;;;;;;;;5041968;28;20179;-66
2022/11/19 00:33:35;;;;;;;15.93;7.20;;;;;;;;;;5037177;28;20030;-66
2022/11/19 00:36:02;;;;;;;15.88;7.47;;;;;;;;;;5029417;28;20163;-66
2022/11/19 00:38:29;;;;;;;17.95;7.55;;;;;;;;;;5022525;28;20565;-66
2022/11/19 00:40:54;;;;;;;15.40;7.15;;;;;;;;;;5022755;28;20049;-66
2022/11/19 00:46:04;;;;;;;15.60;7.57;;;;;;;;;;5022433;28;20650;-66
2022/11/19 00:48:30;;;;;;;22.00;7.63;;;;;;;;;;5022357;28;20515;-66
2022/11/19 00:50:55;;;;;;;17.92;7.32;;;;;;;;;;5020930;28;20103;-66
2022/11/19 00:53:21;;;;;;;19.92;7.15;;;;;;;;;;5023335;28;20025;-66
2022/11/19 00:55:46;;;;;;;14.40;7.38;;;;;;;;;;5022611;28;20029;-66
2022/11/19 00:58:11;;;;;;;15.57;7.50;;;;;;;;;;5022543;28;20571;-66
2022/11/19 01:00:37;;;;;;;17.35;8.07;;;;;;;;;;5022565;28;20029;-66
2022/11/19 01:03:03;;;;;;;14.32;7.10;;;;;;;;;;5022947;28;20014;-66
2022/11/19 01:05:28;;;;;;;21.05;7.85;;;;;;;;;;5053443;28;20024;-66
2022/11/19 01:07:53;;;;;;;23.02;8.77;;;;;;;;;;5062483;28;20582;-66
2022/11/19 01:10:19;;;;;;;17.50;7.75;;;;;;;;;;5043131;28;20037;-66
2022/11/19 01:15:28;;;;;;;18.88;7.38;;;;;;;;;;5062442;28;20066;-66
2022/11/19 01:17:53;;;;;;;15.73;7.78;;;;;;;;;;5061916;28;20036;-66
2022/11/19 01:20:19;;;;;;;17.52;7.35;;;;;;;;;;5062594;28;20111;-66
2022/11/19 01:22:45;;;;;;;18.90;8.02;;;;;;;;;;5062341;28;20037;-66
2022/11/19 01:25:11;;;;;;;15.68;7.53;;;;;;;;;;5061400;28;20066;-67
2022/11/19 01:27:37;;;;;;;14.90;6.90;;;;;;;;;;5062240;28;20025;-66
2022/11/19 01:30:03;;;;;;;17.80;8.35;;;;;;;;;;5056724;28;20460;-66
2022/11/19 01:32:28;;;;;;;19.13;8.18;;;;;;;;;;5050699;28;20490;-66
2022/11/19 01:34:54;;;;;;;18.80;8.60;;;;;;;;;;5041857;28;20047;-66
2022/11/19 01:37:19;;;;;;;18.95;9.23;;;;;;;;;;5043125;28;20087;-66
2022/11/19 01:39:44;;;;;;;19.30;8.13;;;;;;;;;;5041273;28;20063;-66
2022/11/19 01:42:48;;;;;;;17.15;6.97;;;;;;;;;;5027378;28;20028;-67
2022/11/19 01:45:36;;;;;;;16.55;7.60;;;;;;;;;;5045733;28;20029;-66
2022/11/19 01:48:20;;;;;;;16.42;7.65;;;;;;;;;;5045555;28;20032;-66
2022/11/19 01:50:53;;;;;;;21.02;8.85;;;;;;;;;;5044050;28;20099;-66
2022/11/19 01:53:21;;;;;;;15.23;7.72;;;;;;;;;;5045667;28;20037;-66
2022/11/19 01:55:47;;;;;;;16.13;8.40;;;;;;;;;;5041292;28;20033;-66
2022/11/19 01:58:17;;;;;;;15.52;7.82;;;;;;;;;;5062716;28;20051;-66
2022/11/19 02:00:42;;;;;;;15.65;7.97;;;;;;;;;;5057086;28;20445;-66
2022/11/19 02:03:10;;;;;;;18.17;8.27;;;;;;;;;;5042320;28;20033;-66
2022/11/19 02:05:36;;;;;;;16.27;7.55;;;;;;;;;;5046666;28;20021;-66
2022/11/19 02:08:07;;;;;;;20.75;8.05;;;;;;;;;;5046023;28;20033;-66
2022/11/19 02:11:03;;;;;;;18.60;8.27;;;;;;;;;;5029818;28;20045;-66
2022/11/19 02:13:44;;;;;;;19.25;7.88;;;;;;;;;;4994854;28;20134;-66
2022/11/19 02:16:23;;;;;;;19.58;8.15;;;;;;;;;;5026325;28;20049;-66
2022/11/19 02:18:54;;;;;;;18.25;8.27;;;;;;;;;;5025711;28;20037;-67
2022/11/19 02:21:37;;;;;;;18.42;8.90;;;;;;;;;;5025905;28;20042;-66
2022/11/19 02:24:05;;;;;;;15.75;7.43;;;;;;;;;;5025249;28;20033;-66
2022/11/19 02:26:30;;;;;;;17.90;7.82;;;;;;;;;;5037531;28;20445;-66
2022/11/19 02:29:26;;;;;;;18.30;7.90;;;;;;;;;;5041563;28;20059;-66
2022/11/19 02:31:57;;;;;;;17.00;7.60;;;;;;;;;;5044445;28;20044;-66
2022/11/19 02:34:49;;;;;;;18.75;8.05;;;;;;;;;;5046449;28;20390;-66
2022/11/19 02:37:23;;;;;;;18.73;7.50;;;;;;;;;;5038359;28;20064;-66
2022/11/19 02:40:10;;;;;;;17.55;7.55;;;;;;;;;;5040451;28;20033;-66
2022/11/19 02:43:00;;;;;;;14.77;6.78;;;;;;;;;;5044895;28;20033;-66
2022/11/19 02:45:33;;;;;;;17.00;8.02;;;;;;;;;;5045811;28;20120;-66
2022/11/19 02:48:03;;;;;;;16.75;7.43;;;;;;;;;;5046556;28;20028;-66
2022/11/19 02:50:35;;;;;;;14.38;7.60;;;;;;;;;;5045968;28;20041;-66
2022/11/19 02:53:03;;;;;;;16.10;8.20;;;;;;;;;;5045664;28;20185;-66
2022/11/19 02:55:28;;;;;;;17.73;7.65;;;;;;;;;;5045855;28;20040;-66
2022/11/19 02:58:07;;;;;;;14.90;7.85;;;;;;;;;;5046189;28;20560;-66
2022/11/19 03:06:18;;;;;;;16.33;8.13;;;;;;;;;;5046932;28;20524;-66
2022/11/19 03:08:45;;;;;;;17.98;8.32;;;;;;;;;;5046671;28;20110;-66
2022/11/19 03:11:10;;;;;;;16.23;8.65;;;;;;;;;;5047535;28;20045;-66
2022/11/19 03:17:20;;;;;;;17.20;8.85;;;;;;;;;;5046198;28;20044;-66
2022/11/19 03:19:50;;;;;;;18.08;8.93;;;;;;;;;;5028410;28;20033;-66
2022/11/19 03:22:19;;;;;;;17.95;8.68;;;;;;;;;;5046830;28;20039;-66
2022/11/19 03:24:49;;;;;;;15.30;7.97;;;;;;;;;;5046222;28;20033;-66
2022/11/19 03:27:21;;;;;;;21.25;9.07;;;;;;;;;;5047083;28;20040;-65
2022/11/19 03:29:50;;;;;;;16.60;8.45;;;;;;;;;;5046488;28;20021;-65
2022/11/19 03:32:20;;;;;;;16.58;7.72;;;;;;;;;;5044442;28;20029;-66
2022/11/19 03:34:49;;;;;;;20.13;9.23;;;;;;;;;;5043683;28;20043;-66
2022/11/19 03:37:18;;;;;;;17.75;8.75;;;;;;;;;;5046068;28;20024;-66
2022/11/19 03:39:45;;;;;;;20.65;7.90;;;;;;;;;;5046930;28;20036;-66
2022/11/19 03:42:13;;;;;;;20.83;8.27;;;;;;;;;;5047085;28;20104;-66
2022/11/19 03:44:44;;;;;;;17.20;7.65;;;;;;;;;;5044416;28;20084;-66
2022/11/19 03:47:14;;;;;;;15.73;7.35;;;;;;;;;;5040312;28;20059;-66
2022/11/19 03:49:44;;;;;;;18.95;8.60;;;;;;;;;;5065399;28;20029;-66
2022/11/19 03:52:11;;;;;;;15.23;7.15;;;;;;;;;;5064985;28;20067;-66
2022/11/19 03:54:38;;;;;;;17.15;6.88;;;;;;;;;;5066241;28;20032;-66
2022/11/19 03:57:06;;;;;;;15.43;7.43;;;;;;;;;;5061765;28;20047;-66
2022/11/19 03:59:31;;;;;;;15.15;6.90;;;;;;;;;;5043549;28;20554;-66
2022/11/19 04:02:02;;;;;;;12.95;6.57;;;;;;;;;;5046155;28;20717;-66
2022/11/19 04:04:36;;;;;;;12.95;6.88;;;;;;;;;;5045902;28;20067;-66
2022/11/19 04:07:07;;;;;;;14.18;7.55;;;;;;;;;;5034227;28;20056;-66
2022/11/19 04:09:33;;;;;;;15.57;7.60;;;;;;;;;;5045561;28;20033;-66
2022/11/19 04:11:59;;;;;;;14.52;7.53;;;;;;;;;;5045481;28;20059;-66
2022/11/19 04:14:25;;;;;;;17.00;7.50;;;;;;;;;;5045378;28;20021;-66
2022/11/19 04:16:50;;;;;;;21.17;8.07;;;;;;;;;;5045563;28;20422;-66
2022/11/19 04:19:16;;;;;;;17.60;8.27;;;;;;;;;;5045581;28;20124;-66
2022/11/19 04:21:42;;;;;;;15.73;7.30;;;;;;;;;;5045284;28;20414;-66
2022/11/19 04:24:07;;;;;;;19.98;9.20;;;;;;;;;;5038995;28;20556;-66
2022/11/19 04:26:33;;;;;;;18.90;8.07;;;;;;;;;;5025808;28;20029;-66
2022/11/19 04:28:58;;;;;;;12.65;7.05;;;;;;;;;;5025395;28;20041;-66
2022/11/19 04:31:23;;;;;;;17.48;8.02;;;;;;;;;;5025807;28;20034;-66
2022/11/19 04:33:48;;;;;;;16.95;8.13;;;;;;;;;;5035468;28;20060;-66
2022/11/19 04:36:14;;;;;;;17.48;7.47;;;;;;;;;;5041941;28;20123;-66
2022/11/19 04:38:39;;;;;;;14.45;6.65;;;;;;;;;;5047200;28;20100;-66
2022/11/19 04:41:04;;;;;;;16.92;7.93;;;;;;;;;;5045385;28;20094;-66
2022/11/19 04:43:30;;;;;;;16.65;7.97;;;;;;;;;;5045639;28;20391;-66
2022/11/19 04:45:55;;;;;;;15.65;7.60;;;;;;;;;;5046064;28;20055;-66
2022/11/19 04:48:21;;;;;;;17.23;8.27;;;;;;;;;;5050136;28;20124;-66
2022/11/19 04:50:46;;;;;;;20.13;9.23;;;;;;;;;;5043475;28;20581;-65
2022/11/19 04:53:11;;;;;;;18.70;8.15;;;;;;;;;;5045256;28;20828;-66
2022/11/19 04:55:36;;;;;;;18.50;8.05;;;;;;;;;;5045412;28;20060;-66
2022/11/19 04:58:02;;;;;;;18.55;7.85;;;;;;;;;;5046133;28;20025;-66
2022/11/19 05:00:27;;;;;;;21.35;8.07;;;;;;;;;;5045203;28;20021;-66
2022/11/19 05:02:53;;;;;;;14.50;8.15;;;;;;;;;;5045036;28;20545;-66
2022/11/19 05:05:18;;;;;;;18.05;7.85;;;;;;;;;;5045350;28;20013;-66
2022/11/19 05:07:43;;;;;;;18.90;8.23;;;;;;;;;;5045243;28;20079;-66
2022/11/19 05:10:09;;;;;;;21.40;9.32;;;;;;;;;;5045030;28;20082;-66
2022/11/19 05:12:34;;;;;;;17.42;8.50;;;;;;;;;;5054696;28;20517;-66
2022/11/19 05:15:00;;;;;;;24.52;9.25;;;;;;;;;;5068973;28;20047;-66
2022/11/19 05:17:25;;;;;;;20.65;8.45;;;;;;;;;;5068682;28;20485;-66
2022/11/19 05:19:50;;;;;;;20.27;9.65;;;;;;;;;;5067725;28;20036;-66
2022/11/19 05:22:16;;;;;;;22.05;8.60;;;;;;;;;;5068963;28;20024;-66
2022/11/19 05:24:41;;;;;;;18.45;8.93;;;;;;;;;;5048410;28;20060;-66
2022/11/19 05:27:06;;;;;;;19.60;8.57;;;;;;;;;;5046615;28;20029;-67
2022/11/19 05:29:32;;;;;;;19.60;8.88;;;;;;;;;;5049419;28;20017;-67
2022/11/19 05:31:57;;;;;;;16.60;6.97;;;;;;;;;;5047361;28;20079;-66
2022/11/19 05:34:22;;;;;;;14.20;7.72;;;;;;;;;;5048472;28;20029;-66
2022/11/19 05:36:48;;;;;;;18.13;8.38;;;;;;;;;;5048522;28;20409;-66
2022/11/19 05:39:13;;;;;;;16.27;7.82;;;;;;;;;;5048535;28;20043;-66
2022/11/19 05:41:38;;;;;;;15.48;6.75;;;;;;;;;;5055220;28;20020;-66
2022/11/19 05:44:04;;;;;;;13.57;6.75;;;;;;;;;;5048297;28;20703;-66
2022/11/19 05:46:29;;;;;;;21.25;8.30;;;;;;;;;;5046894;28;20445;-66
2022/11/19 05:48:54;;;;;;;20.13;7.38;;;;;;;;;;5048093;28;20120;-66
2022/11/19 05:51:20;;;;;;;12.40;6.10;;;;;;;;;;5029056;28;20098;-66
2022/11/19 05:53:45;;;;;;;21.42;8.30;;;;;;;;;;5048268;28;20615;-66
2022/11/19 05:56:11;;;;;;;21.67;8.65;;;;;;;;;;5048738;28;20094;-67
2022/11/19 05:58:36;;;;;;;20.13;8.15;;;;;;;;;;5048303;28;20086;-66
2022/11/19 06:01:02;;;;;;;20.30;8.75;;;;;;;;;;5048472;28;20425;-66
2022/11/19 06:03:28;;;;;;;16.75;7.72;;;;;;;;;;5046611;28;20037;-66
2022/11/19 06:05:53;;;;;;;21.17;8.57;;;;;;;;;;5029667;28;20095;-66
2022/11/19 06:08:18;;;;;;;21.40;8.70;;;;;;;;;;5028593;28;20028;-66
2022/11/19 06:10:44;;;;;;;19.65;8.65;;;;;;;;;;5027637;28;20045;-66
2022/11/19 06:13:09;;;;;;;16.95;7.88;;;;;;;;;;5028190;28;20033;-66
2022/11/19 06:15:35;;;;;;;19.40;8.15;;;;;;;;;;5028826;28;20029;-66
2022/11/19 06:18:00;;;;;;;23.10;8.13;;;;;;;;;;5045014;28;20061;-65
2022/11/19 06:20:25;;;;;;;15.95;7.60;;;;;;;;;;5057176;28;20094;-66
2022/11/19 06:22:51;;;;;;;25.10;7.55;;;;;;;;;;5047586;28;20053;-66
2022/11/19 06:25:16;;;;;;;14.15;7.65;;;;;;;;;;5047818;28;20037;-66
2022/11/19 06:27:41;;;;;;;15.70;7.55;;;;;;;;;;5048070;28;20060;-66
2022/11/19 06:30:07;;;;;;;24.55;8.23;;;;;;;;;;5023986;28;20033;-66
2022/11/19 06:32:33;;;;;;;22.70;8.10;;;;;;;;;;5047588;28;20025;-66
2022/11/19 06:34:58;;;;;;;15.20;7.78;;;;;;;;;;5045763;28;20037;-66
2022/11/19 06:37:23;;;;;;;17.00;7.57;;;;;;;;;;5047376;28;20040;-66
2022/11/19 06:39:49;;;;;;;15.77;7.40;;;;;;;;;;5046861;28;20053;-66
2022/11/19 06:44:58;;;;;;;18.23;8.00;;;;;;;;;;5030816;28;20095;-66
2022/11/19 06:47:23;;;;;;;12.45;6.43;;;;;;;;;;5027951;28;20037;-66
2022/11/19 06:49:49;;;;;;;15.88;7.20;;;;;;;;;;5025320;28;20537;-65
2022/11/19 06:52:14;;;;;;;21.40;8.75;;;;;;;;;;5026148;28;20126;-66
2022/11/19 06:54:39;;;;;;;26.05;8.40;;;;;;;;;;5031573;28;20477;-66
2022/11/19 06:57:05;;;;;;;20.80;8.30;;;;;;;;;;5039483;28;20131;-66
2022/11/19 06:59:30;;;;;;;21.52;8.43;;;;;;;;;;5039743;28;20850;-65
2022/11/19 07:01:55;;;;;;;24.33;8.45;;;;;;;;;;5028782;28;20030;-65
2022/11/19 07:04:21;;;;;;;17.25;7.05;;;;;;;;;;5035971;28;20484;-66
2022/11/19 07:06:47;;;;;;;22.90;8.68;;;;;;;;;;5026907;28;20032;-66
2022/11/19 07:09:12;;;;;;;19.08;7.65;;;;;;;;;;5025788;28;20033;-66
2022/11/19 07:11:37;;;;;;;19.83;8.23;;;;;;;;;;5029747;28;20040;-65
2022/11/19 07:14:03;;;;;;;21.65;8.90;;;;;;;;;;5026450;28;20514;-66
2022/11/19 07:16:31;;;;;;;23.10;9.02;;;;;;;;;;5027148;28;20092;-66
2022/11/19 07:18:58;;;;;;;18.60;6.85;;;;;;;;;;5024689;28;20522;-66
2022/11/19 07:21:23;;;;;;;17.83;7.25;;;;;;;;;;5025985;28;20034;-66
2022/11/19 07:23:49;;;;;;;18.05;8.40;;;;;;;;;;5029364;28;20174;-65
2022/11/19 07:26:14;;;;;;;19.00;8.27;;;;;;;;;;5049849;28;20020;-66
2022/11/19 07:28:39;;;;;;;15.27;6.95;;;;;;;;;;5066886;28;20040;-66
2022/11/19 07:31:06;;;;;;;16.95;7.78;;;;;;;;;;5066752;28;20029;-67
2022/11/19 07:33:31;;;;;;;22.13;7.68;;;;;;;;;;5039824;28;20040;-66
2022/11/19 07:35:57;;;;;;;21.45;8.32;;;;;;;;;;5027087;28;20648;-66
2022/11/19 07:38:22;;;;;;;19.73;7.05;;;;;;;;;;5028032;28;20112;-66
2022/11/19 07:40:52;;;;;;;18.40;8.38;;;;;;;;;;5026646;28;20037;-66
2022/11/19 07:43:17;;;;;;;20.48;7.78;;;;;;;;;;5041279;28;20044;-66
2022/11/19 07:45:43;;;;;;;16.90;7.47;;;;;;;;;;5048276;28;20033;-66
2022/11/19 07:48:08;;;;;;;15.15;6.45;;;;;;;;;;5046126;28;20128;-66
2022/11/19 07:50:33;;;;;;;19.98;8.13;;;;;;;;;;5045050;28;20049;-66
2022/11/19 07:52:59;;;;;;;19.00;6.70;;;;;;;;;;5046183;28;20058;-66
2022/11/19 07:55:24;;;;;;;20.50;8.27;;;;;;;;;;5042531;28;20034;-66
2022/11/19 07:57:52;;;;;;;16.63;8.18;;;;;;;;;;5042354;28;20037;-66
2022/11/19 08:00:18;;;;;;;23.33;7.80;;;;;;;;;;5042844;28;20110;-66
2022/11/19 08:02:43;;;;;;;19.60;7.80;;;;;;;;;;5042668;28;20535;-66
2022/11/19 08:05:09;;;;;;;28.33;8.30;;;;;;;;;;5045171;28;20052;-66
2022/11/19 08:07:36;;;;;;;15.75;7.20;;;;;;;;;;5031017;28;20889;-66
2022/11/19 08:10:05;;;;;;;18.63;8.15;;;;;;;;;;5021688;28;20045;-72
2022/11/19 08:12:30;;;;;;;18.92;8.10;;;;;;;;;;5038616;28;20040;-65
2022/11/19 08:14:55;;;;;;;23.25;7.72;;;;;;;;;;5040688;28;20029;-67
2022/11/19 08:20:06;;;;;;;15.88;7.68;;;;;;;;;;5044332;28;20071;-67
2022/11/19 08:22:32;;;;;;;17.55;6.80;;;;;;;;;;5039435;28;20508;-66
2022/11/19 08:24:57;;;;;;;15.27;6.32;;;;;;;;;;5031415;28;20516;-65
2022/11/19 08:27:23;;;;;;;19.15;6.47;;;;;;;;;;5013662;28;20523;-65
2022/11/19 08:29:48;;;;;;;21.33;8.52;;;;;;;;;;5025136;28;20024;-64
2022/11/19 08:32:14;;;;;;;19.17;7.15;;;;;;;;;;5015718;28;20558;-65
2022/11/19 08:34:39;;;;;;;17.52;7.05;;;;;;;;;;5038257;28;20037;-66
2022/11/19 08:37:04;;;;;;;16.73;7.30;;;;;;;;;;5042830;28;20056;-66
2022/11/19 08:39:30;;;;;;;17.23;6.88;;;;;;;;;;5037824;28;20064;-65
2022/11/19 08:44:40;;;;;;;19.95;7.40;;;;;;;;;;5036740;28;20039;-67
2022/11/19 08:47:05;;;;;;;16.70;7.75;;;;;;;;;;5043614;28;20044;-69
2022/11/19 08:49:31;;;;;;;13.15;6.15;;;;;;;;;;5031524;28;20124;-69
2022/11/19 08:51:56;;;;;;;23.25;7.28;;;;;;;;;;5024127;28;20511;-67
2022/11/19 08:54:22;;;;;;;15.68;7.07;;;;;;;;;;5040204;28;20032;-68
2022/11/19 08:56:47;;;;;;;21.98;7.47;;;;;;;;;;5037762;28;20025;-67
2022/11/19 08:59:13;;;;;;;13.30;6.72;;;;;;;;;;5043488;28;20033;-67
2022/11/19 09:01:38;;;;;;;15.77;6.75;;;;;;;;;;5041694;28;20036;-67
2022/11/19 09:04:04;;;;;;;15.77;7.60;;;;;;;;;;5040151;28;20055;-67
2022/11/19 09:06:29;;;;;;;17.67;6.65;;;;;;;;;;5036220;28;20083;-67
2022/11/19 09:08:55;;;;;;;18.15;6.97;;;;;;;;;;5034570;28;20059;-67
2022/11/19 09:11:21;;;;;;;15.13;5.88;;;;;;;;;;5039437;28;20021;-67
2022/11/19 09:13:46;;;;;;;13.55;5.90;;;;;;;;;;5041518;28;20045;-67
2022/11/19 09:16:12;;;;;;;16.27;5.95;;;;;;;;;;5042669;28;20852;-67
2022/11/19 09:18:38;;;;;;;9.43;4.65;;;;;;;;;;5043322;28;20108;-67
2022/11/19 09:21:06;;;;;;;17.02;5.65;;;;;;;;;;5044982;28;20029;-66
2022/11/19 09:23:31;;;;;;;10.45;5.25;;;;;;;;;;5043954;28;20417;-67
2022/11/19 09:26:06;;;;;;;13.07;4.63;;;;;;;;;;5059032;28;20049;-67
2022/11/19 09:28:31;;;;;;;16.02;5.00;;;;;;;;;;5005436;28;20466;-67
2022/11/19 09:31:08;;;;;;;15.90;4.95;;;;;;;;;;5046468;28;20033;-67
2022/11/19 09:33:37;;;;;;;20.55;6.00;;;;;;;;;;5036001;28;20041;-67
2022/11/19 09:36:02;;;;;;;16.55;5.22;;;;;;;;;;5042430;28;20039;-67
2022/11/19 09:38:30;;;;;;;18.10;7.20;;;;;;;;;;5040021;28;20029;-68
2022/11/19 09:40:56;;;;;;;18.77;6.30;;;;;;;;;;5040768;28;20033;-68
2022/11/19 09:43:40;;;;;;;15.75;6.35;;;;;;;;;;5043314;28;20421;-68
2022/11/19 09:46:33;;;;;;;16.48;6.55;;;;;;;;;;5040223;28;20037;-67
2022/11/19 09:49:03;;;;;;;28.50;7.07;;;;;;;;;;5039570;28;20049;-67
2022/11/19 09:51:32;;;;;;;21.80;7.80;;;;;;;;;;5041058;28;20045;-67
2022/11/19 09:54:01;;;;;;;20.67;7.80;;;;;;;;;;5040145;28;20505;-67
2022/11/19 09:56:34;;;;;;;20.73;8.20;;;;;;;;;;5038759;28;20620;-67
2022/11/19 09:59:03;;;;;;;16.27;6.90;;;;;;;;;;5045650;28;20068;-67
2022/11/19 10:01:29;;;;;;;22.25;8.65;;;;;;;;;;5044449;28;20043;-67
2022/11/19 10:03:55;;;;;;;20.45;7.93;;;;;;;;;;5041820;28;20044;-67
2022/11/19 10:06:38;;;;;;;19.50;8.30;;;;;;;;;;5016101;28;20128;-67
2022/11/19 10:09:07;;;;;;;20.88;9.50;;;;;;;;;;5044200;28;20048;-68
2022/11/19 10:11:40;;;;;;;24.38;8.77;;;;;;;;;;5047066;28;20024;-68
2022/11/19 10:14:44;;;;;;;23.08;9.90;;;;;;;;;;5043716;28;20041;-68
2022/11/19 10:17:12;;;;;;;18.63;8.82;;;;;;;;;;4983433;28;20038;-68
2022/11/19 10:19:45;;;;;;;24.17;9.07;;;;;;;;;;4983626;28;20046;-68
2022/11/19 10:22:20;;;;;;;21.42;9.18;;;;;;;;;;5017872;28;20133;-68
2022/11/19 10:25:11;;;;;;;22.85;8.55;;;;;;;;;;5045980;28;20033;-68
2022/11/19 10:27:50;;;;;;;23.23;8.63;;;;;;;;;;5043416;28;20112;-68
2022/11/19 10:30:24;;;;;;;17.45;6.07;;;;;;;;;;5051616;28;20028;-67
2022/11/19 10:33:02;;;;;;;14.77;6.25;;;;;;;;;;5063975;28;20056;-67
2022/11/19 10:35:36;;;;;;;16.60;5.63;;;;;;;;;;5046127;28;20043;-67
2022/11/19 10:38:05;;;;;;;16.00;5.65;;;;;;;;;;5062120;28;20075;-68
2022/11/19 10:40:42;;;;;;;18.95;7.45;;;;;;;;;;5051969;28;20583;-67
2022/11/19 10:43:16;;;;;;;15.38;5.55;;;;;;;;;;5032857;28;20033;-68
2022/11/19 10:45:42;;;;;;;14.43;5.85;;;;;;;;;;5043395;28;20064;-67
2022/11/19 10:48:23;;;;;;;15.23;5.38;;;;;;;;;;5030413;28;20497;-67
2022/11/19 10:50:50;;;;;;;14.57;5.40;;;;;;;;;;5025838;28;20124;-66
2022/11/19 10:53:36;;;;;;;15.27;5.07;;;;;;;;;;5027439;28;20033;-67
2022/11/19 10:56:08;;;;;;;14.68;5.38;;;;;;;;;;5026966;28;20045;-67
2022/11/19 10:58:34;;;;;;;12.40;5.05;;;;;;;;;;5040950;28;20055;-66
2022/11/19 11:01:02;;;;;;;12.88;4.70;;;;;;;;;;5066104;28;20037;-67
2022/11/19 11:03:47;;;;;;;10.15;4.57;;;;;;;;;;5066219;28;20032;-66
2022/11/19 11:06:13;;;;;;;16.42;5.22;;;;;;;;;;5065798;28;20574;-67
2022/11/19 11:08:52;;;;;;;14.45;5.13;;;;;;;;;;5049967;28;20620;-67
2022/11/19 11:11:20;;;;;;;10.38;4.90;;;;;;;;;;5046555;28;20033;-67
2022/11/19 11:16:46;;;;;;;16.20;5.95;;;;;;;;;;5042561;28;20040;-67
2022/11/19 11:19:15;;;;;;;10.23;5.18;;;;;;;;;;5036759;28;20613;-67
2022/11/19 11:21:42;;;;;;;17.63;5.93;;;;;;;;;;5026600;28;20555;-67
2022/11/19 11:24:09;;;;;;;12.23;5.13;;;;;;;;;;5025695;28;20033;-67
2022/11/19 11:26:36;;;;;;;14.43;5.43;;;;;;;;;;5025965;28;20025;-67
2022/11/19 11:29:07;;;;;;;13.05;5.20;;;;;;;;;;5025994;28;20171;-67
2022/11/19 11:31:46;;;;;;;11.55;5.35;;;;;;;;;;5025959;28;20120;-67
2022/11/19 11:34:27;;;;;;;12.27;5.30;;;;;;;;;;5034050;28;20522;-67
2022/11/19 11:36:53;;;;;;;18.75;5.60;;;;;;;;;;5045844;28;20044;-67
2022/11/19 11:39:31;;;;;;;14.15;4.93;;;;;;;;;;5045683;28;20021;-67
2022/11/19 11:41:59;;;;;;;16.35;5.63;;;;;;;;;;5044596;28;20041;-66
2022/11/19 11:44:27;;;;;;;13.82;6.15;;;;;;;;;;5045349;28;20098;-67
2022/11/19 11:46:56;;;;;;;14.65;6.07;;;;;;;;;;5045170;28;20114;-67
2022/11/19 11:49:23;;;;;;;11.80;4.35;;;;;;;;;;5045546;28;20040;-67
2022/11/19 11:52:10;;;;;;;17.80;6.38;;;;;;;;;;5044283;28;20131;-67
2022/11/19 11:54:37;;;;;;;12.45;6.20;;;;;;;;;;5043666;28;20027;-67
2022/11/19 11:57:17;;;;;;;18.48;7.25;;;;;;;;;;5044712;28;20037;-67
2022/11/19 11:59:43;;;;;;;16.20;6.32;;;;;;;;;;5044775;28;20104;-67
2022/11/19 12:02:18;;;;;;;15.98;5.75;;;;;;;;;;5044368;28;20053;-67
2022/11/19 12:04:44;;;;;;;17.90;6.80;;;;;;;;;;5037197;28;20123;-66
2022/11/19 12:07:21;;;;;;;16.45;5.75;;;;;;;;;;5039255;28;20038;-66
2022/11/19 12:10:02;;;;;;;15.68;5.38;;;;;;;;;;5039966;28;20056;-66
2022/11/19 12:12:52;;;;;;;12.52;5.35;;;;;;;;;;5036288;28;20049;-66
2022/11/19 12:15:31;;;;;;;15.30;5.45;;;;;;;;;;5038792;28;20194;-66
2022/11/19 12:18:16;;;;;;;18.75;5.65;;;;;;;;;;5039445;28;20029;-66
2022/11/19 12:20:51;;;;;;;12.75;5.28;;;;;;;;;;5039142;28;20009;-66
2022/11/19 12:23:35;;;;;;;14.68;4.82;;;;;;;;;;5036224;28;20068;-66
2022/11/19 12:26:31;;;;;;;14.38;5.43;;;;;;;;;;5035858;28;20039;-66
2022/11/19 12:29:17;;;;;;;13.68;5.43;;;;;;;;;;5037018;28;20143;-66
2022/11/19 12:31:56;;;;;;;10.13;5.40;;;;;;;;;;5031643;28;20203;-66
2022/11/19 12:34:43;;;;;;;13.57;5.15;;;;;;;;;;5037418;28;20229;-67
2022/11/19 12:37:24;;;;;;;10.57;4.78;;;;;;;;;;5034194;28;20037;-66
2022/11/19 12:40:22;;;;;;;8.60;4.30;;;;;;;;;;5039436;28;20035;-67
2022/11/19 12:43:05;;;;;;;12.88;5.18;;;;;;;;;;5019876;28;20025;-67
2022/11/19 12:45:38;;;;;;;14.15;5.20;;;;;;;;;;5041753;28;20040;-66
2022/11/19 12:48:16;;;;;;;9.50;5.13;;;;;;;;;;5042883;28;20112;-66
2022/11/19 12:51:00;;;;;;;9.70;5.13;;;;;;;;;;5043012;28;20048;-67
2022/11/19 12:53:37;;;;;;;7.43;4.47;;;;;;;;;;5038624;28;20060;-66
2022/11/19 12:56:27;;;;;;;10.40;5.05;;;;;;;;;;5039443;28;20048;-66
2022/11/19 12:58:59;;;;;;;14.13;5.82;;;;;;;;;;5044307;28;20219;-66
2022/11/19 13:01:31;;;;;;;12.80;5.90;;;;;;;;;;5025336;28;20132;-67
2022/11/19 13:04:07;;;;;;;13.20;6.07;;;;;;;;;;5046995;28;20802;-66
2022/11/19 13:06:47;;;;;;;14.07;5.22;;;;;;;;;;5044334;28;20279;-66
2022/11/19 13:09:24;;;;;;;14.43;6.78;;;;;;;;;;5043262;28;20033;-66
2022/11/19 13:11:54;;;;;;;14.77;6.75;;;;;;;;;;5043715;28;20029;-66
2022/11/19 13:14:38;;;;;;;14.40;6.95;;;;;;;;;;5043664;28;20128;-66
2022/11/19 13:17:06;;;;;;;16.88;7.68;;;;;;;;;;5036130;28;20044;-66
2022/11/19 13:19:35;;;;;;;14.93;7.20;;;;;;;;;;5032251;28;20044;-67
2022/11/19 13:22:12;;;;;;;14.73;6.95;;;;;;;;;;5039628;28;20433;-66
2022/11/19 13:24:44;;;;;;;16.98;5.82;;;;;;;;;;5042794;28;20037;-66
2022/11/19 13:27:16;;;;;;;11.88;5.18;;;;;;;;;;5037166;28;21113;-67
2022/11/19 13:29:46;;;;;;;12.38;5.88;;;;;;;;;;5049331;28;20040;-67
2022/11/19 13:32:24;;;;;;;12.10;5.40;;;;;;;;;;5043930;28;20049;-66
2022/11/19 13:35:28;;;;;;;8.25;5.07;;;;;;;;;;5062362;28;20066;-66
2022/11/19 13:38:21;;;;;;;11.27;4.85;;;;;;;;;;4938590;28;20053;-66
2022/11/19 13:40:57;;;;;;;14.00;5.68;;;;;;;;;;5049146;28;20040;-66
2022/11/19 13:46:09;;;;;;;;;;;;;;;;;;5047005;28;20183;-66
2022/11/19 13:48:52;;;;;;;8.82;4.63;;;;;;;;;;5047311;28;19913;-65
2022/11/19 13:51:27;;;;;;;11.00;5.27;;;;;;;;;;5045866;28;20049;-66
2022/11/19 13:53:54;;;;;;;13.55;5.50;;;;;;;;;;5047530;28;20719;-65
2022/11/19 13:56:20;;;;;;;10.88;5.72;;;;;;;;;;5048452;28;20119;-65
2022/11/19 13:58:48;;;;;;;11.15;4.95;;;;;;;;;;5042464;28;20033;-65
2022/11/19 14:01:45;;;;;;;11.68;5.90;;;;;;;;;;5044548;28;20056;-66
2022/11/19 14:04:16;;;;;;;10.00;4.50;;;;;;;;;;5048627;28;20507;-66
2022/11/19 14:06:53;;;;;;;10.77;4.43;;;;;;;;;;5048419;28;20121;-66
2022/11/19 14:09:29;;;;;;;10.15;4.80;;;;;;;;;;5048211;28;20029;-66
2022/11/19 14:12:02;;;;;;;8.25;4.00;;;;;;;;;;5047176;28;20049;-66
2022/11/19 14:26:39;;;;;;;9.07;4.38;;;;;;;;;;5046037;28;20067;-65
2022/11/19 14:29:05;;;;;;;11.95;5.00;;;;;;;;;;5042724;28;20510;-66
2022/11/19 14:31:31;;;;;;;11.00;5.10;;;;;;;;;;5043865;28;20465;-66
2022/11/19 14:33:59;;;;;;;12.10;5.18;;;;;;;;;;5041348;28;20675;-66
2022/11/19 14:36:39;;;;;;;9.02;4.45;;;;;;;;;;5044423;28;20044;-64
2022/11/19 14:39:15;;;;;;;6.05;3.33;;;;;;;;;;5042881;28;20159;-65
2022/11/19 14:41:44;;;;;;;8.23;3.75;;;;;;;;;;5041184;28;20032;-64
2022/11/19 14:44:31;;;;;;;10.10;4.20;;;;;;;;;;5046116;28;20075;-64
2022/11/19 14:47:22;;;;;;;6.47;3.35;;;;;;;;;;5042981;28;20029;-64
2022/11/19 14:49:52;;;;;;;7.65;3.72;;;;;;;;;;5043794;28;20037;-64
2022/11/19 14:52:21;;;;;;;8.80;3.40;;;;;;;;;;5044729;28;20104;-64
2022/11/19 14:54:54;;;;;;;7.28;3.72;;;;;;;;;;5044497;28;20037;-64
2022/11/19 14:57:27;;;;;;;9.70;4.60;;;;;;;;;;5053705;28;20102;-64
2022/11/19 15:00:03;;;;;;;8.20;4.50;;;;;;;;;;5064875;28;20262;-64
2022/11/19 15:02:36;;;;;;;6.65;3.22;;;;;;;;;;5065267;28;20071;-64
2022/11/19 15:05:12;;;;;;;6.72;2.83;;;;;;;;;;5060582;28;20040;-64
2022/11/19 15:07:59;;;;;;;6.70;2.85;;;;;;;;;;5058312;28;20421;-64
2022/11/19 15:10:30;;;;;;;4.68;3.13;;;;;;;;;;5023845;28;20041;-64
2022/11/19 15:13:25;;;;;;;7.47;3.17;;;;;;;;;;5019622;28;20068;-64
2022/11/19 15:15:54;;;;;;;7.93;4.20;;;;;;;;;;5009198;28;20057;-64
2022/11/19 15:18:38;;;;;;;6.63;3.00;;;;;;;;;;5031864;28;20033;-64
2022/11/19 15:21:09;;;;;;;6.82;3.20;;;;;;;;;;5043245;28;20031;-64
2022/11/19 15:23:53;;;;;;;8.93;4.63;;;;;;;;;;5041877;28;20515;-64
2022/11/19 15:26:40;;;;;;;11.80;5.28;;;;;;;;;;5044649;28;20044;-64
2022/11/19 15:29:46;;;;;;;18.15;6.95;;;;;;;;;;5026086;28;20037;-64
2022/11/19 15:32:33;;;;;;;8.18;4.40;;;;;;;;;;5041508;28;20048;-64
2022/11/19 15:35:07;;;;;;;6.40;3.75;;;;;;;;;;5021647;28;20033;-64